createdAt,value
2023-01-25T00:00:11.516Z,89.81
2023-01-25T00:01:11.578Z,89.70
2023-01-25T00:02:11.714Z,89.81
2023-01-25T00:03:11.807Z,89.81
2023-01-25T00:04:11.813Z,90.01
2023-01-25T00:05:11.906Z,90.12
2023-01-25T00:06:11.965Z,90.01
2023-01-25T00:07:12.079Z,89.76
2023-01-25T00:08:12.169Z,89.66
2023-01-25T00:09:12.246Z,89.56
2023-01-25T00:10:12.362Z,89.25
2023-01-25T00:11:12.416Z,89.14
2023-01-25T00:12:12.495Z,89.14
2023-01-25T00:13:12.657Z,89.04
2023-01-25T00:14:12.666Z,89.14
2023-01-25T00:15:12.762Z,89.25
2023-01-25T00:16:12.880Z,89.14
2023-01-25T00:17:12.913Z,89.14
2023-01-25T00:18:12.995Z,89.14
2023-01-25T00:19:13.073Z,89.08
2023-01-25T00:20:13.146Z,89.39
2023-01-25T00:21:13.217Z,89.60
2023-01-25T00:22:13.309Z,89.70
2023-01-25T00:23:13.400Z,89.50
2023-01-25T00:24:13.473Z,89.60
2023-01-25T00:25:13.540Z,89.70
2023-01-25T00:26:13.623Z,89.81
2023-01-25T00:27:13.693Z,89.75
2023-01-25T00:28:13.788Z,90.06
2023-01-25T00:29:13.872Z,90.26
2023-01-25T00:30:13.949Z,90.47
2023-01-25T00:31:14.129Z,90.79
2023-01-25T00:32:14.208Z,90.79
2023-01-25T00:33:14.489Z,90.89
2023-01-25T00:34:14.295Z,90.89
2023-01-25T00:35:14.371Z,90.68
2023-01-25T00:36:14.447Z,90.58
2023-01-25T00:37:14.535Z,90.47
2023-01-25T00:38:14.623Z,90.62
2023-01-25T00:39:14.703Z,90.83
2023-01-25T00:40:14.773Z,91.00
2023-01-25T00:41:14.873Z,90.83
2023-01-25T00:42:14.969Z,90.93
2023-01-25T00:43:15.050Z,90.89
2023-01-25T00:44:15.095Z,91.00
2023-01-25T00:45:15.197Z,91.00
2023-01-25T00:46:15.352Z,91.10
2023-01-25T00:47:15.373Z,91.10
2023-01-25T00:48:15.455Z,90.89
2023-01-25T00:49:15.539Z,90.75
2023-01-25T00:50:15.616Z,90.44
2023-01-25T00:51:15.720Z,90.26
2023-01-25T00:52:15.794Z,90.26
2023-01-25T00:53:15.880Z,90.26
2023-01-25T00:54:15.935Z,90.37
2023-01-25T00:55:16.033Z,90.58
2023-01-25T00:56:16.107Z,90.58
2023-01-25T00:57:16.210Z,90.47
2023-01-25T00:58:16.289Z,90.47
2023-01-25T00:59:16.366Z,90.47
2023-01-25T01:00:16.439Z,90.47
2023-01-25T01:01:16.565Z,90.47
2023-01-25T01:02:16.592Z,90.68
2023-01-25T01:03:16.677Z,90.79
2023-01-25T01:04:16.809Z,91.00
2023-01-25T01:05:16.908Z,91.20
2023-01-25T01:06:16.914Z,91.10
2023-01-25T01:07:17.012Z,91.00
2023-01-25T01:08:17.103Z,90.89
2023-01-25T01:09:17.179Z,90.85
2023-01-25T01:10:17.288Z,90.75
2023-01-25T01:11:17.328Z,90.44
2023-01-25T01:12:17.413Z,90.33
2023-01-25T01:13:17.518Z,90.33
2023-01-25T01:14:17.561Z,90.22
2023-01-25T01:15:17.652Z,90.12
2023-01-25T01:16:17.760Z,89.91
2023-01-25T01:17:17.814Z,89.95
2023-01-25T01:18:17.899Z,90.26
2023-01-25T01:19:17.983Z,90.47
2023-01-25T01:20:18.072Z,90.47
2023-01-25T01:21:18.143Z,90.58
2023-01-25T01:22:18.228Z,90.58
2023-01-25T01:23:18.332Z,90.47
2023-01-25T01:24:18.436Z,90.47
2023-01-25T01:25:18.465Z,90.68
2023-01-25T01:26:18.535Z,90.68
2023-01-25T01:27:18.605Z,90.79
2023-01-25T01:28:18.703Z,90.79
2023-01-25T01:29:18.776Z,90.79
2023-01-25T01:30:18.864Z,90.68
2023-01-25T01:31:19.114Z,90.79
2023-01-25T01:32:19.320Z,90.79
2023-01-25T01:33:19.142Z,90.79
2023-01-25T01:34:19.216Z,90.79
2023-01-25T01:35:19.288Z,91.00
2023-01-25T01:36:19.356Z,91.00
2023-01-25T01:37:19.425Z,91.00
2023-01-25T01:38:19.529Z,90.89
2023-01-25T01:39:19.608Z,91.20
2023-01-25T01:40:19.681Z,91.41
2023-01-25T01:41:19.781Z,91.41
2023-01-25T01:42:19.861Z,91.41
2023-01-25T01:43:19.950Z,91.41
2023-01-25T01:44:20.022Z,91.35
2023-01-25T01:45:20.098Z,91.66
2023-01-25T01:46:20.175Z,91.72
2023-01-25T01:47:20.239Z,91.83
2023-01-25T01:48:20.332Z,91.83
2023-01-25T01:49:20.420Z,91.83
2023-01-25T01:50:20.513Z,91.72
2023-01-25T01:51:20.605Z,91.62
2023-01-25T01:52:20.670Z,91.52
2023-01-25T01:53:20.770Z,91.52
2023-01-25T01:54:20.810Z,91.37
2023-01-25T01:55:20.882Z,91.27
2023-01-25T01:56:20.974Z,91.16
2023-01-25T01:57:21.032Z,91.06
2023-01-25T01:58:21.146Z,90.95
2023-01-25T01:59:21.215Z,90.79
2023-01-25T02:00:21.303Z,90.89
2023-01-25T02:01:21.405Z,91.10
2023-01-25T02:02:21.500Z,91.41
2023-01-25T02:03:21.553Z,91.41
2023-01-25T02:04:21.591Z,91.37
2023-01-25T02:05:21.698Z,90.89
2023-01-25T02:06:21.765Z,91.10
2023-01-25T02:07:21.837Z,91.31
2023-01-25T02:08:22.007Z,91.56
2023-01-25T02:09:22.007Z,91.77
2023-01-25T02:10:22.138Z,91.97
2023-01-25T02:11:22.190Z,92.03
2023-01-25T02:12:22.255Z,92.03
2023-01-25T02:13:22.354Z,91.93
2023-01-25T02:14:22.399Z,91.72
2023-01-25T02:15:22.471Z,91.77
2023-01-25T02:16:22.551Z,91.87
2023-01-25T02:17:22.626Z,92.08
2023-01-25T02:18:22.714Z,92.12
2023-01-25T02:19:22.799Z,92.22
2023-01-25T02:20:22.882Z,92.44
2023-01-25T02:21:22.982Z,92.75
2023-01-25T02:22:23.062Z,92.85
2023-01-25T02:23:23.152Z,92.85
2023-01-25T02:24:23.258Z,92.85
2023-01-25T02:25:23.317Z,93.06
2023-01-25T02:26:23.396Z,93.02
2023-01-25T02:27:23.470Z,93.06
2023-01-25T02:28:23.555Z,93.16
2023-01-25T02:29:23.603Z,93.16
2023-01-25T02:30:23.686Z,93.59
2023-01-25T02:31:23.877Z,93.79
2023-01-25T02:32:23.843Z,93.79
2023-01-25T02:33:23.941Z,93.75
2023-01-25T02:34:24.016Z,93.65
2023-01-25T02:35:24.097Z,93.44
2023-01-25T02:36:24.200Z,93.23
2023-01-25T02:37:24.274Z,92.87
2023-01-25T02:38:24.394Z,92.56
2023-01-25T02:39:24.436Z,92.25
2023-01-25T02:40:24.561Z,92.03
2023-01-25T02:41:24.572Z,91.83
2023-01-25T02:42:24.646Z,91.72
2023-01-25T02:43:24.745Z,91.83
2023-01-25T02:44:24.816Z,91.72
2023-01-25T02:45:24.898Z,91.47
2023-01-25T02:46:25.064Z,91.37
2023-01-25T02:47:25.057Z,91.16
2023-01-25T02:48:25.143Z,90.85
2023-01-25T02:49:25.187Z,90.64
2023-01-25T02:50:25.264Z,90.54
2023-01-25T02:51:25.349Z,90.44
2023-01-25T02:52:25.428Z,90.33
2023-01-25T02:53:25.516Z,90.22
2023-01-25T02:54:25.590Z,90.22
2023-01-25T02:55:25.674Z,90.12
2023-01-25T02:56:25.745Z,90.12
2023-01-25T02:57:25.832Z,90.22
2023-01-25T02:58:25.955Z,90.22
2023-01-25T02:59:26.016Z,90.22
2023-01-25T03:00:26.103Z,90.22
2023-01-25T03:01:26.223Z,90.33
2023-01-25T03:02:26.365Z,90.33
2023-01-25T03:03:26.383Z,90.33
2023-01-25T03:04:26.422Z,90.54
2023-01-25T03:05:26.514Z,90.54
2023-01-25T03:06:26.595Z,90.64
2023-01-25T03:07:26.685Z,90.54
2023-01-25T03:08:26.758Z,90.58
2023-01-25T03:09:26.839Z,90.79
2023-01-25T03:10:26.916Z,90.68
2023-01-25T03:11:27.023Z,90.68
2023-01-25T03:12:27.105Z,91.10
2023-01-25T03:13:27.208Z,91.31
2023-01-25T03:14:27.265Z,91.52
2023-01-25T03:15:27.325Z,91.41
2023-01-25T03:16:27.431Z,91.41
2023-01-25T03:17:27.509Z,91.41
2023-01-25T03:18:27.600Z,91.52
2023-01-25T03:19:27.669Z,91.41
2023-01-25T03:20:27.750Z,91.41
2023-01-25T03:21:27.871Z,91.31
2023-01-25T03:22:27.911Z,91.16
2023-01-25T03:23:28.035Z,91.16
2023-01-25T03:24:28.128Z,91.06
2023-01-25T03:25:28.163Z,90.85
2023-01-25T03:26:28.241Z,90.75
2023-01-25T03:27:28.347Z,90.64
2023-01-25T03:28:28.443Z,90.68
2023-01-25T03:29:28.529Z,90.68
2023-01-25T03:30:28.612Z,90.79
2023-01-25T03:31:28.817Z,90.79
2023-01-25T03:32:28.831Z,90.89
2023-01-25T03:33:28.846Z,91.14
2023-01-25T03:34:28.928Z,91.66
2023-01-25T03:35:29.003Z,91.87
2023-01-25T03:36:29.212Z,92.29
2023-01-25T03:37:29.152Z,92.40
2023-01-25T03:38:29.249Z,92.54
2023-01-25T03:39:29.304Z,92.65
2023-01-25T03:40:29.377Z,92.85
2023-01-25T03:41:29.468Z,93.16
2023-01-25T03:42:29.571Z,93.06
2023-01-25T03:43:29.650Z,93.48
2023-01-25T03:44:29.694Z,93.48
2023-01-25T03:45:29.789Z,93.59
2023-01-25T03:46:29.890Z,93.59
2023-01-25T03:47:29.972Z,93.69
2023-01-25T03:48:30.047Z,93.59
2023-01-25T03:49:30.147Z,93.59
2023-01-25T03:50:30.213Z,93.65
2023-01-25T03:51:30.285Z,93.65
2023-01-25T03:52:30.356Z,93.54
2023-01-25T03:53:30.513Z,93.33
2023-01-25T03:54:30.515Z,93.23
2023-01-25T03:55:30.592Z,92.97
2023-01-25T03:56:30.676Z,92.77
2023-01-25T03:57:30.744Z,92.66
2023-01-25T03:58:30.840Z,92.56
2023-01-25T03:59:30.933Z,92.46
2023-01-25T04:00:31.002Z,92.35
2023-01-25T04:01:31.081Z,92.25
2023-01-25T04:02:31.173Z,92.14
2023-01-25T04:03:31.485Z,92.00
2023-01-25T04:04:31.307Z,91.89
2023-01-25T04:05:31.393Z,91.58
2023-01-25T04:06:31.484Z,91.47
2023-01-25T04:07:31.561Z,91.27
2023-01-25T04:08:31.669Z,91.27
2023-01-25T04:09:31.732Z,91.16
2023-01-25T04:10:31.811Z,91.06
2023-01-25T04:11:31.880Z,91.06
2023-01-25T04:12:31.966Z,90.95
2023-01-25T04:13:32.053Z,90.85
2023-01-25T04:14:44.003Z,90.85
2023-01-25T04:15:32.213Z,90.95
2023-01-25T04:16:32.299Z,90.95
2023-01-25T04:17:32.373Z,90.95
2023-01-25T04:18:32.462Z,90.95
2023-01-25T04:19:32.537Z,90.95
2023-01-25T04:20:32.589Z,90.85
2023-01-25T04:21:32.665Z,90.75
2023-01-25T04:22:32.747Z,90.85
2023-01-25T04:23:32.859Z,90.95
2023-01-25T04:24:32.904Z,90.85
2023-01-25T04:25:32.987Z,90.85
2023-01-25T04:26:33.073Z,90.85
2023-01-25T04:27:33.170Z,90.85
2023-01-25T04:28:33.270Z,90.95
2023-01-25T04:29:40.936Z,90.95
2023-01-25T04:30:33.440Z,90.85
2023-01-25T04:31:33.681Z,90.85
2023-01-25T04:32:33.696Z,90.75
2023-01-25T04:33:33.685Z,90.64
2023-01-25T04:34:33.751Z,90.64
2023-01-25T04:35:33.808Z,90.75
2023-01-25T04:36:33.886Z,90.85
2023-01-25T04:37:33.991Z,90.85
2023-01-25T04:38:34.080Z,90.95
2023-01-25T04:39:34.152Z,91.10
2023-01-25T04:40:34.230Z,91.20
2023-01-25T04:41:34.305Z,91.20
2023-01-25T04:42:34.388Z,91.20
2023-01-25T04:43:34.475Z,91.31
2023-01-25T04:44:34.519Z,91.20
2023-01-25T04:45:34.607Z,91.16
2023-01-25T04:46:34.681Z,91.00
2023-01-25T04:47:34.771Z,91.00
2023-01-25T04:48:34.874Z,90.79
2023-01-25T04:49:34.946Z,90.89
2023-01-25T04:50:35.075Z,91.00
2023-01-25T04:51:35.132Z,91.00
2023-01-25T04:52:35.214Z,91.00
2023-01-25T04:53:35.323Z,91.00
2023-01-25T04:54:35.368Z,90.89
2023-01-25T04:55:35.444Z,90.93
2023-01-25T04:56:35.551Z,91.35
2023-01-25T04:57:35.616Z,91.66
2023-01-25T04:58:35.715Z,91.87
2023-01-25T04:59:35.785Z,92.18
2023-01-25T05:00:35.869Z,92.29
2023-01-25T05:01:35.981Z,92.33
2023-01-25T05:02:36.039Z,92.54
2023-01-25T05:03:36.114Z,92.75
2023-01-25T05:04:36.176Z,92.96
2023-01-25T05:05:36.248Z,93.06
2023-01-25T05:06:36.328Z,93.10
2023-01-25T05:07:36.435Z,93.31
2023-01-25T05:08:36.541Z,93.52
2023-01-25T05:09:36.617Z,93.77
2023-01-25T05:10:36.690Z,94.19
2023-01-25T05:11:36.761Z,94.50
2023-01-25T05:12:36.850Z,94.67
2023-01-25T05:13:36.931Z,94.67
2023-01-25T05:14:36.973Z,94.78
2023-01-25T05:15:37.050Z,94.88
2023-01-25T05:16:37.253Z,94.88
2023-01-25T05:17:37.221Z,94.84
2023-01-25T05:18:47.829Z,94.63
2023-01-25T05:19:37.395Z,94.52
2023-01-25T05:20:37.449Z,94.31
2023-01-25T05:21:37.567Z,94.21
2023-01-25T05:22:37.669Z,94.10
2023-01-25T05:23:37.746Z,93.90
2023-01-25T05:24:37.790Z,93.79
2023-01-25T05:25:37.875Z,93.65
2023-01-25T05:26:37.944Z,93.44
2023-01-25T05:27:38.034Z,93.33
2023-01-25T05:28:38.135Z,93.12
2023-01-25T05:29:38.210Z,92.91
2023-01-25T05:30:38.328Z,92.81
2023-01-25T05:31:38.399Z,92.81
2023-01-25T05:32:38.444Z,92.65
2023-01-25T05:33:38.526Z,92.65
2023-01-25T05:34:38.579Z,92.75
2023-01-25T05:35:38.644Z,92.96
2023-01-25T05:36:38.734Z,93.06
2023-01-25T05:37:38.797Z,93.12
2023-01-25T05:38:38.899Z,93.12
2023-01-25T05:39:38.970Z,93.12
2023-01-25T05:40:39.038Z,92.91
2023-01-25T05:41:39.113Z,92.81
2023-01-25T05:42:39.197Z,92.71
2023-01-25T05:43:39.296Z,92.60
2023-01-25T05:44:39.329Z,92.60
2023-01-25T05:45:39.420Z,92.60
2023-01-25T05:46:39.503Z,92.60
2023-01-25T05:47:39.572Z,92.60
2023-01-25T05:48:39.650Z,92.60
2023-01-25T05:49:39.732Z,92.50
2023-01-25T05:50:39.819Z,92.50
2023-01-25T05:51:39.880Z,92.50
2023-01-25T05:52:39.961Z,92.40
2023-01-25T05:53:40.070Z,92.44
2023-01-25T05:54:40.095Z,92.54
2023-01-25T05:55:40.185Z,93.06
2023-01-25T05:56:40.266Z,93.37
2023-01-25T05:57:40.364Z,93.48
2023-01-25T05:58:40.450Z,93.37
2023-01-25T05:59:40.528Z,93.59
2023-01-25T06:00:40.612Z,93.63
2023-01-25T06:01:40.707Z,93.84
2023-01-25T06:02:40.860Z,94.04
2023-01-25T06:03:40.966Z,94.21
2023-01-25T06:04:40.955Z,94.31
2023-01-25T06:05:41.057Z,94.21
2023-01-25T06:06:41.127Z,94.21
2023-01-25T06:07:41.216Z,94.21
2023-01-25T06:08:41.313Z,94.21
2023-01-25T06:09:41.388Z,94.31
2023-01-25T06:10:41.469Z,94.31
2023-01-25T06:11:41.553Z,94.21
2023-01-25T06:12:41.638Z,94.10
2023-01-25T06:13:41.752Z,94.21
2023-01-25T06:14:41.810Z,94.10
2023-01-25T06:15:41.908Z,94.00
2023-01-25T06:16:41.963Z,93.90
2023-01-25T06:17:42.056Z,93.85
2023-01-25T06:18:42.152Z,93.75
2023-01-25T06:19:42.230Z,93.75
2023-01-25T06:20:42.313Z,93.75
2023-01-25T06:21:42.388Z,93.65
2023-01-25T06:22:42.467Z,93.54
2023-01-25T06:23:45.014Z,93.33
2023-01-25T06:24:42.623Z,93.18
2023-01-25T06:25:42.709Z,93.08
2023-01-25T06:26:42.756Z,92.87
2023-01-25T06:27:42.847Z,92.77
2023-01-25T06:28:42.956Z,92.77
2023-01-25T06:29:43.020Z,92.71
2023-01-25T06:30:43.128Z,92.71
2023-01-25T06:31:43.400Z,92.71
2023-01-25T06:32:43.220Z,92.71
2023-01-25T06:33:43.304Z,92.60
2023-01-25T06:34:43.342Z,92.60
2023-01-25T06:35:43.417Z,92.60
2023-01-25T06:36:43.474Z,92.71
2023-01-25T06:37:43.542Z,92.71
2023-01-25T06:38:43.659Z,92.71
2023-01-25T06:39:43.719Z,92.81
2023-01-25T06:40:43.800Z,92.91
2023-01-25T06:41:43.871Z,93.02
2023-01-25T06:42:43.955Z,92.81
2023-01-25T06:43:44.043Z,92.81
2023-01-25T06:44:44.090Z,92.81
2023-01-25T06:45:44.161Z,92.91
2023-01-25T06:46:44.290Z,92.91
2023-01-25T06:47:44.307Z,93.02
2023-01-25T06:48:44.405Z,93.12
2023-01-25T06:49:44.490Z,93.12
2023-01-25T06:50:44.579Z,93.02
2023-01-25T06:51:44.655Z,92.91
2023-01-25T06:52:44.740Z,92.85
2023-01-25T06:53:44.839Z,93.16
2023-01-25T06:54:44.876Z,93.37
2023-01-25T06:55:44.949Z,93.69
2023-01-25T06:56:45.029Z,93.69
2023-01-25T06:57:45.117Z,93.90
2023-01-25T06:58:45.215Z,93.90
2023-01-25T06:59:45.289Z,93.79
2023-01-25T07:00:45.360Z,93.90
2023-01-25T07:01:45.463Z,94.00
2023-01-25T07:02:45.673Z,94.00
2023-01-25T07:03:45.612Z,94.00
2023-01-25T07:04:45.697Z,93.90
2023-01-25T07:05:45.785Z,93.90
2023-01-25T07:06:45.860Z,93.79
2023-01-25T07:07:45.930Z,93.79
2023-01-25T07:08:46.037Z,93.69
2023-01-25T07:09:46.099Z,93.69
2023-01-25T07:10:46.189Z,93.79
2023-01-25T07:11:46.270Z,93.79
2023-01-25T07:12:46.351Z,93.59
2023-01-25T07:13:46.447Z,93.48
2023-01-25T07:14:46.482Z,93.41
2023-01-25T07:15:46.566Z,93.84
2023-01-25T07:16:46.630Z,94.04
2023-01-25T07:17:46.705Z,94.15
2023-01-25T07:18:46.810Z,94.42
2023-01-25T07:19:46.861Z,94.42
2023-01-25T07:20:46.935Z,94.42
2023-01-25T07:21:47.018Z,94.42
2023-01-25T07:22:47.100Z,94.31
2023-01-25T07:23:47.209Z,94.31
2023-01-25T07:24:47.268Z,94.21
2023-01-25T07:25:47.341Z,94.21
2023-01-25T07:26:47.414Z,94.10
2023-01-25T07:27:47.495Z,94.00
2023-01-25T07:28:47.591Z,93.90
2023-01-25T07:29:47.624Z,93.75
2023-01-25T07:30:47.695Z,93.65
2023-01-25T07:31:47.820Z,93.44
2023-01-25T07:32:47.878Z,93.48
2023-01-25T07:33:47.978Z,93.33
2023-01-25T07:34:48.047Z,93.33
2023-01-25T07:35:48.151Z,93.23
2023-01-25T07:36:48.231Z,93.16
2023-01-25T07:37:48.309Z,93.16
2023-01-25T07:38:48.427Z,93.16
2023-01-25T07:39:48.451Z,93.27
2023-01-25T07:40:48.519Z,93.37
2023-01-25T07:41:48.599Z,93.37
2023-01-25T07:42:48.676Z,93.48
2023-01-25T07:43:48.766Z,93.48
2023-01-25T07:44:48.833Z,93.63
2023-01-25T07:45:48.910Z,93.90
2023-01-25T07:46:49.017Z,94.00
2023-01-25T07:47:49.102Z,94.00
2023-01-25T07:48:49.171Z,94.00
2023-01-25T07:49:49.215Z,94.00
2023-01-25T07:50:49.291Z,93.90
2023-01-25T07:51:49.374Z,93.79
2023-01-25T07:52:49.453Z,93.69
2023-01-25T07:53:49.554Z,93.48
2023-01-25T07:54:49.628Z,93.37
2023-01-25T07:55:49.701Z,93.37
2023-01-25T07:56:49.778Z,93.27
2023-01-25T07:57:49.857Z,93.27
2023-01-25T07:58:49.960Z,93.33
2023-01-25T07:59:50.001Z,93.23
2023-01-25T08:00:50.096Z,93.12
2023-01-25T08:01:50.183Z,93.02
2023-01-25T08:02:50.237Z,92.91
2023-01-25T08:03:50.333Z,92.71
2023-01-25T08:04:50.395Z,92.71
2023-01-25T08:05:50.494Z,92.71
2023-01-25T08:06:50.546Z,92.71
2023-01-25T08:07:50.625Z,92.81
2023-01-25T08:08:50.711Z,92.81
2023-01-25T08:09:50.753Z,92.71
2023-01-25T08:10:50.826Z,92.81
2023-01-25T08:11:50.911Z,92.91
2023-01-25T08:12:51.009Z,92.91
2023-01-25T08:13:51.077Z,92.91
2023-01-25T08:14:51.155Z,92.81
2023-01-25T08:15:51.240Z,92.71
2023-01-25T08:16:51.312Z,92.60
2023-01-25T08:17:51.395Z,92.50
2023-01-25T08:18:51.502Z,92.50
2023-01-25T08:19:51.575Z,92.71
2023-01-25T08:20:51.648Z,92.81
2023-01-25T08:21:51.742Z,92.91
2023-01-25T08:22:51.804Z,92.91
2023-01-25T08:23:52.010Z,92.81
2023-01-25T08:24:51.974Z,92.71
2023-01-25T08:25:52.074Z,92.75
2023-01-25T08:26:52.149Z,92.96
2023-01-25T08:27:52.245Z,92.96
2023-01-25T08:28:52.326Z,93.06
2023-01-25T08:29:52.368Z,93.16
2023-01-25T08:30:57.587Z,93.12
2023-01-25T08:31:52.631Z,93.23
2023-01-25T08:32:52.654Z,93.23
2023-01-25T08:33:52.761Z,93.12
2023-01-25T08:34:52.832Z,93.12
2023-01-25T08:35:52.909Z,93.12
2023-01-25T08:36:53.033Z,93.02
2023-01-25T08:37:53.080Z,93.02
2023-01-25T08:38:53.256Z,93.02
2023-01-25T08:39:53.263Z,93.12
2023-01-25T08:40:53.319Z,93.12
2023-01-25T08:41:53.402Z,93.12
2023-01-25T08:42:53.481Z,93.12
2023-01-25T08:43:53.567Z,93.12
2023-01-25T08:44:53.633Z,93.02
2023-01-25T08:45:53.704Z,92.91
2023-01-25T08:46:53.784Z,93.02
2023-01-25T08:47:53.860Z,93.02
2023-01-25T08:48:53.958Z,93.12
2023-01-25T08:49:54.013Z,93.12
2023-01-25T08:50:54.086Z,93.23
2023-01-25T08:51:54.176Z,93.23
2023-01-25T08:52:54.267Z,93.23
2023-01-25T08:53:54.324Z,93.33
2023-01-25T08:54:54.400Z,93.23
2023-01-25T08:55:54.473Z,93.16
2023-01-25T08:56:54.573Z,93.37
2023-01-25T08:57:56.494Z,93.48
2023-01-25T08:58:54.750Z,93.48
2023-01-25T08:59:54.795Z,93.54
2023-01-25T09:00:54.890Z,93.59
2023-01-25T09:01:54.967Z,93.75
2023-01-25T09:02:55.068Z,93.75
2023-01-25T09:03:55.300Z,93.79
2023-01-25T09:04:55.238Z,93.85
2023-01-25T09:05:55.325Z,93.85
2023-01-25T09:06:55.422Z,93.96
2023-01-25T09:07:55.457Z,93.96
2023-01-25T09:08:55.557Z,93.85
2023-01-25T09:09:55.647Z,93.75
2023-01-25T09:10:55.719Z,93.75
2023-01-25T09:11:55.803Z,93.65
2023-01-25T09:12:55.882Z,93.65
2023-01-25T09:13:55.969Z,93.54
2023-01-25T09:14:56.044Z,93.44
2023-01-25T09:15:56.135Z,93.23
2023-01-25T09:16:56.223Z,93.02
2023-01-25T09:17:56.306Z,93.12
2023-01-25T09:18:56.432Z,93.23
2023-01-25T09:19:56.465Z,93.23
2023-01-25T09:20:56.546Z,93.33
2023-01-25T09:21:56.613Z,93.29
2023-01-25T09:22:56.680Z,93.08
2023-01-25T09:24:05.988Z,92.87
2023-01-25T09:24:56.882Z,92.87
2023-01-25T09:25:56.959Z,92.87
2023-01-25T09:27:00.176Z,92.66
2023-01-25T09:27:57.093Z,92.66
2023-01-25T09:28:57.187Z,92.56
2023-01-25T09:30:01.759Z,92.71
2023-01-25T09:31:18.578Z,92.71
2023-01-25T09:31:57.508Z,92.81
2023-01-25T09:32:57.730Z,92.81
2023-01-25T09:33:57.578Z,92.91
2023-01-25T09:34:57.661Z,92.81
2023-01-25T09:35:57.735Z,92.60
2023-01-25T09:36:57.821Z,92.60
2023-01-25T09:37:57.895Z,92.71
2023-01-25T09:38:58.017Z,92.71
2023-01-25T09:39:58.049Z,92.91
2023-01-25T09:40:58.139Z,92.91
2023-01-25T09:41:58.390Z,92.91
2023-01-25T09:42:58.309Z,92.91
2023-01-25T09:44:04.612Z,92.75
2023-01-25T09:44:58.506Z,92.85
2023-01-25T09:45:58.582Z,93.06
2023-01-25T09:46:58.639Z,93.21
2023-01-25T09:47:58.700Z,93.52
2023-01-25T09:49:07.441Z,93.73
2023-01-25T09:49:58.893Z,93.90
2023-01-25T09:50:58.965Z,94.00
2023-01-25T09:51:59.045Z,94.21
2023-01-25T09:52:59.118Z,94.00
2023-01-25T09:53:59.266Z,94.00
2023-01-25T09:54:59.261Z,93.90
2023-01-25T09:55:59.348Z,94.00
2023-01-25T09:56:59.418Z,94.00
2023-01-25T09:57:59.482Z,94.21
2023-01-25T09:58:59.603Z,94.10
2023-01-25T10:00:01.145Z,94.10
2023-01-25T10:00:59.706Z,94.10
2023-01-25T10:01:59.818Z,94.21
2023-01-25T10:02:59.963Z,94.21
2023-01-25T10:03:59.982Z,94.21
2023-01-25T10:05:00.071Z,94.31
2023-01-25T10:06:00.139Z,94.42
2023-01-25T10:07:01.565Z,94.52
2023-01-25T10:08:00.314Z,94.31
2023-01-25T10:09:00.397Z,94.31
2023-01-25T10:10:00.456Z,94.31
2023-01-25T10:11:00.528Z,94.42
2023-01-25T10:12:00.615Z,94.42
2023-01-25T10:13:00.701Z,94.37
2023-01-25T10:14:00.791Z,94.37
2023-01-25T10:15:00.884Z,94.17
2023-01-25T10:16:00.978Z,94.06
2023-01-25T10:17:01.061Z,93.90
2023-01-25T10:19:28.434Z,93.90
2023-01-25T10:19:33.331Z,94.10
2023-01-25T10:20:33.415Z,94.42
2023-01-25T10:21:33.516Z,94.67
2023-01-25T10:22:33.604Z,95.04
2023-01-25T10:23:33.661Z,95.04
2023-01-25T10:24:33.748Z,94.90
2023-01-25T10:25:33.818Z,94.79
2023-01-25T10:26:33.881Z,94.69
2023-01-25T10:27:33.974Z,94.58
2023-01-25T10:28:34.056Z,94.43
2023-01-25T10:29:34.140Z,94.17
2023-01-25T10:30:34.215Z,93.79
2023-01-25T10:31:34.398Z,93.90
2023-01-25T10:32:35.859Z,94.06
2023-01-25T10:33:36.631Z,94.17
2023-01-25T10:34:39.095Z,94.17
2023-01-25T10:35:37.207Z,94.17
2023-01-25T10:36:34.660Z,94.06
2023-01-25T10:37:34.736Z,93.81
2023-01-25T10:38:34.815Z,93.71
2023-01-25T10:39:34.915Z,93.60
2023-01-25T10:40:34.953Z,93.50
2023-01-25T10:41:35.050Z,93.18
2023-01-25T10:42:35.123Z,92.87
2023-01-25T10:43:35.200Z,92.66
2023-01-25T10:44:35.291Z,92.71
2023-01-25T10:45:35.360Z,92.91
2023-01-25T10:46:35.474Z,92.97
2023-01-25T10:47:35.538Z,93.08
2023-01-25T10:48:35.624Z,93.18
2023-01-25T10:49:35.695Z,93.08
2023-01-25T10:50:35.749Z,92.97
2023-01-25T10:51:35.816Z,92.87
2023-01-25T10:52:35.887Z,92.83
2023-01-25T10:53:35.971Z,92.83
2023-01-25T10:54:36.062Z,92.83
2023-01-25T10:55:36.122Z,92.83
2023-01-25T10:56:36.205Z,92.62
2023-01-25T10:57:36.315Z,92.62
2023-01-25T10:58:36.355Z,92.31
2023-01-25T10:59:36.459Z,92.10
2023-01-25T11:00:36.508Z,92.10
2023-01-25T11:01:36.684Z,92.10
2023-01-25T11:02:36.725Z,92.10
2023-01-25T11:03:36.763Z,92.14
2023-01-25T11:04:36.839Z,92.14
2023-01-25T11:05:36.909Z,92.40
2023-01-25T11:06:36.963Z,92.81
2023-01-25T11:07:37.065Z,92.77
2023-01-25T11:08:37.123Z,92.77
2023-01-25T11:09:37.212Z,92.87
2023-01-25T11:10:37.245Z,92.87
2023-01-25T11:11:38.540Z,92.97
2023-01-25T11:12:37.375Z,93.08
2023-01-25T11:13:37.449Z,93.08
2023-01-25T11:14:37.545Z,93.18
2023-01-25T11:15:37.652Z,93.18
2023-01-25T11:16:37.706Z,93.18
2023-01-25T11:17:37.768Z,93.18
2023-01-25T11:18:37.832Z,92.97
2023-01-25T11:19:37.942Z,92.97
2023-01-25T11:20:37.953Z,92.97
2023-01-25T11:21:38.044Z,92.97
2023-01-25T11:22:38.130Z,92.93
2023-01-25T11:23:38.206Z,92.93
2023-01-25T11:24:38.314Z,92.72
2023-01-25T11:25:38.374Z,92.72
2023-01-25T11:26:38.447Z,92.72
2023-01-25T11:27:38.525Z,92.72
2023-01-25T11:28:38.618Z,92.41
2023-01-25T11:29:38.708Z,92.31
2023-01-25T11:30:38.778Z,92.31
2023-01-25T11:31:38.857Z,92.31
2023-01-25T11:32:38.914Z,92.35
2023-01-25T11:33:39.003Z,92.35
2023-01-25T11:34:39.092Z,92.56
2023-01-25T11:35:39.174Z,92.87
2023-01-25T11:36:39.267Z,93.12
2023-01-25T11:37:39.340Z,93.44
2023-01-25T11:38:39.412Z,93.75
2023-01-25T11:39:39.514Z,94.06
2023-01-25T11:40:39.593Z,94.27
2023-01-25T11:41:39.634Z,94.37
2023-01-25T11:42:39.714Z,94.58
2023-01-25T11:43:39.772Z,94.58
2023-01-25T11:44:39.870Z,94.69
2023-01-25T11:45:39.913Z,94.73
2023-01-25T11:46:40.635Z,94.84
2023-01-25T11:47:40.057Z,94.94
2023-01-25T11:48:40.128Z,94.94
2023-01-25T11:49:40.222Z,94.94
2023-01-25T11:50:40.271Z,94.90
2023-01-25T11:51:40.349Z,94.90
2023-01-25T11:52:40.424Z,94.90
2023-01-25T11:53:40.489Z,94.79
2023-01-25T11:54:40.577Z,94.79
2023-01-25T11:55:40.624Z,94.79
2023-01-25T11:56:40.692Z,94.69
2023-01-25T11:57:40.770Z,94.58
2023-01-25T11:58:40.836Z,94.48
2023-01-25T11:59:40.929Z,94.37
2023-01-25T12:00:40.998Z,94.37
2023-01-25T12:01:41.062Z,94.48
2023-01-25T12:02:41.167Z,94.48
2023-01-25T12:03:41.267Z,94.48
2023-01-25T12:04:41.304Z,94.37
2023-01-25T12:05:41.347Z,94.23
2023-01-25T12:06:41.421Z,94.02
2023-01-25T12:07:41.503Z,93.85
2023-01-25T12:08:41.595Z,93.81
2023-01-25T12:09:41.685Z,93.60
2023-01-25T12:10:41.975Z,93.71
2023-01-25T12:11:41.861Z,93.60
2023-01-25T12:12:41.963Z,93.44
2023-01-25T12:13:42.019Z,93.60
2023-01-25T12:14:42.124Z,93.60
2023-01-25T12:15:42.171Z,93.60
2023-01-25T12:16:42.243Z,93.50
2023-01-25T12:17:42.326Z,93.29
2023-01-25T12:18:42.397Z,93.18
2023-01-25T12:19:42.487Z,93.18
2023-01-25T12:20:42.563Z,93.29
2023-01-25T12:21:42.642Z,93.40
2023-01-25T12:22:42.729Z,93.40
2023-01-25T12:23:42.807Z,93.40
2023-01-25T12:24:42.897Z,93.50
2023-01-25T12:25:42.942Z,93.50
2023-01-25T12:26:43.013Z,93.60
2023-01-25T12:27:43.071Z,93.40
2023-01-25T12:28:43.175Z,93.23
2023-01-25T12:29:43.318Z,93.33
2023-01-25T12:30:43.369Z,93.54
2023-01-25T12:31:43.516Z,93.85
2023-01-25T12:32:43.462Z,93.75
2023-01-25T12:33:43.556Z,93.85
2023-01-25T12:34:43.650Z,93.85
2023-01-25T12:35:43.700Z,93.96
2023-01-25T12:36:43.765Z,93.91
2023-01-25T12:37:43.855Z,94.02
2023-01-25T12:38:43.945Z,94.02
2023-01-25T12:39:44.022Z,94.02
2023-01-25T12:40:44.089Z,93.81
2023-01-25T12:41:44.167Z,93.91
2023-01-25T12:42:44.241Z,93.81
2023-01-25T12:43:44.321Z,93.71
2023-01-25T12:44:44.403Z,93.71
2023-01-25T12:45:44.476Z,93.71
2023-01-25T12:46:44.641Z,93.71
2023-01-25T12:47:44.658Z,93.81
2023-01-25T12:48:44.736Z,93.71
2023-01-25T12:49:44.842Z,93.81
2023-01-25T12:50:44.920Z,93.81
2023-01-25T12:51:44.991Z,93.81
2023-01-25T12:52:45.089Z,93.81
2023-01-25T12:53:45.172Z,93.77